createdAt,value
2022-09-20T00:01:07.776Z,0.88
2022-09-20T00:03:39.065Z,1.23
2022-09-20T00:06:08.346Z,1.20
2022-09-20T00:08:35.251Z,1.20
2022-09-20T00:11:07.420Z,1.17
2022-09-20T00:13:35.139Z,1.38
2022-09-20T00:16:15.747Z,1.10
2022-09-20T00:18:42.699Z,1.88
2022-09-20T00:21:16.693Z,2.00
2022-09-20T00:23:43.370Z,1.88
2022-09-20T00:26:10.043Z,1.80
2022-09-20T00:28:36.845Z,1.20
2022-09-20T00:31:03.834Z,1.50
2022-09-20T00:33:49.057Z,1.60
2022-09-20T00:36:16.269Z,1.20
2022-09-20T00:38:42.878Z,1.05
2022-09-20T00:41:09.999Z,1.20
2022-09-20T00:43:46.530Z,1.27
2022-09-20T00:46:42.502Z,1.00
2022-09-20T00:49:20.952Z,1.10
2022-09-20T00:51:52.286Z,0.80
2022-09-20T00:54:20.869Z,0.95
2022-09-20T00:56:49.003Z,0.80
2022-09-20T00:59:34.940Z,0.70
2022-09-20T01:02:33.009Z,0.90
2022-09-20T01:05:00.141Z,1.00
2022-09-20T01:07:27.426Z,0.95
2022-09-20T01:09:54.125Z,1.05
2022-09-20T01:12:24.499Z,0.90
2022-09-20T01:14:52.178Z,0.82
2022-09-20T01:17:23.271Z,1.00
2022-09-20T01:20:11.025Z,0.80
2022-09-20T01:22:59.141Z,0.93
2022-09-20T01:26:02.851Z,1.10
2022-09-20T01:28:30.549Z,0.98
2022-09-20T01:31:12.318Z,1.10
2022-09-20T01:33:48.318Z,1.13
2022-09-20T01:36:23.350Z,1.10
2022-09-20T01:39:11.102Z,1.00
2022-09-20T01:41:55.996Z,0.90
2022-09-20T01:44:37.021Z,1.10
2022-09-20T01:47:32.950Z,0.90
2022-09-20T01:50:33.759Z,1.00
2022-09-20T01:53:30.894Z,1.00
2022-09-20T01:56:28.301Z,0.88
2022-09-20T01:59:24.289Z,0.90
2022-09-20T02:01:54.148Z,1.02
2022-09-20T02:04:42.463Z,1.25
2022-09-20T02:07:38.249Z,1.20
2022-09-20T02:10:27.329Z,1.35
2022-09-20T02:13:01.154Z,1.27
2022-09-20T02:15:34.046Z,1.23
2022-09-20T02:18:10.977Z,1.10
2022-09-20T02:21:03.122Z,1.05
2022-09-20T02:23:56.127Z,0.93
2022-09-20T02:26:44.233Z,1.15
2022-09-20T02:29:43.069Z,1.00
2022-09-20T02:32:21.199Z,1.00
2022-09-20T02:34:57.087Z,0.93
2022-09-20T02:37:42.546Z,1.00
2022-09-20T02:40:11.953Z,0.80
2022-09-20T02:42:49.913Z,1.08
2022-09-20T02:45:38.280Z,0.98
2022-09-20T02:48:06.073Z,0.88
2022-09-20T02:50:49.605Z,0.90
2022-09-20T02:53:39.976Z,0.98
2022-09-20T02:56:25.060Z,1.40
2022-09-20T02:59:19.634Z,0.80
2022-09-20T03:02:04.606Z,0.90
2022-09-20T03:05:09.696Z,1.45
2022-09-20T03:07:51.545Z,1.10
2022-09-20T03:10:45.006Z,1.17
2022-09-20T03:13:19.913Z,1.20
2022-09-20T03:16:22.198Z,0.98
2022-09-20T03:19:21.819Z,1.33
2022-09-20T03:21:54.463Z,0.98
2022-09-20T03:24:26.966Z,0.98
2022-09-20T03:27:00.405Z,0.90
2022-09-20T03:29:55.730Z,0.80
2022-09-20T03:32:34.105Z,0.75
2022-09-20T03:35:23.155Z,0.60
2022-09-20T03:38:08.693Z,0.95
2022-09-20T03:41:14.095Z,0.82
2022-09-20T03:44:10.833Z,0.80
2022-09-20T03:46:50.309Z,0.82
2022-09-20T03:49:35.491Z,0.93
2022-09-20T03:52:12.611Z,1.00
2022-09-20T03:54:48.660Z,0.82
2022-09-20T03:57:42.136Z,0.80
2022-09-20T04:00:34.525Z,0.73
2022-09-20T04:03:14.051Z,0.90
2022-09-20T04:05:57.897Z,1.25
2022-09-20T04:08:40.456Z,0.85
2022-09-20T04:11:52.254Z,0.90
2022-09-20T04:14:41.837Z,0.75
2022-09-20T04:17:18.848Z,0.95
2022-09-20T04:20:21.358Z,1.05
2022-09-20T04:22:53.996Z,1.10
2022-09-20T04:25:27.787Z,0.90
2022-09-20T04:28:03.062Z,1.17
2022-09-20T04:30:37.514Z,1.45
2022-09-20T04:33:18.524Z,1.83
2022-09-20T04:36:24.354Z,1.38
2022-09-20T04:39:02.101Z,1.35
2022-09-20T04:41:49.860Z,1.55
2022-09-20T04:44:35.414Z,1.40
2022-09-20T04:47:39.016Z,1.33
2022-09-20T04:51:09.549Z,1.40
2022-09-20T04:53:54.610Z,1.52
2022-09-20T04:56:27.766Z,1.20
2022-09-20T04:59:07.840Z,1.27
2022-09-20T05:02:03.611Z,1.17
2022-09-20T05:04:56.114Z,1.50
2022-09-20T05:07:50.011Z,1.30
2022-09-20T05:11:01.826Z,1.30
2022-09-20T05:14:13.799Z,1.23
2022-09-20T05:17:17.813Z,1.20
2022-09-20T05:20:04.122Z,1.60
2022-09-20T05:22:50.459Z,1.73
2022-09-20T05:25:54.191Z,1.50
2022-09-20T05:29:10.049Z,1.40
2022-09-20T05:32:02.083Z,1.77
2022-09-20T05:34:56.418Z,1.63
2022-09-20T05:37:31.870Z,1.40
2022-09-20T05:40:28.789Z,1.50
2022-09-20T05:43:08.835Z,1.58
2022-09-20T05:45:48.203Z,1.30
2022-09-20T05:48:21.613Z,1.70
2022-09-20T05:51:03.510Z,1.52
2022-09-20T05:53:50.977Z,1.43
2022-09-20T05:56:37.286Z,1.38
2022-09-20T05:59:24.871Z,1.27
2022-09-20T06:02:10.440Z,1.30
2022-09-20T06:04:47.709Z,1.80
2022-09-20T06:07:23.606Z,1.60
2022-09-20T06:10:26.102Z,1.42
2022-09-20T06:13:03.193Z,1.40
2022-09-20T06:15:41.139Z,1.50
2022-09-20T06:18:16.527Z,1.42
2022-09-20T06:21:12.321Z,1.30
2022-09-20T06:23:38.994Z,1.20
2022-09-20T06:26:16.896Z,1.23
2022-09-20T06:28:50.113Z,1.60
2022-09-20T06:31:17.926Z,1.38
2022-09-20T06:34:06.110Z,1.20
2022-09-20T06:36:53.743Z,1.30
2022-09-20T06:40:14.386Z,1.80
2022-09-20T06:42:42.294Z,2.13
2022-09-20T06:45:09.032Z,2.08
2022-09-20T06:47:38.769Z,3.90
2022-09-20T06:50:06.398Z,4.43
2022-09-20T06:52:34.587Z,2.10
2022-09-20T06:55:01.802Z,1.75
2022-09-20T06:57:35.378Z,1.50
2022-09-20T07:00:02.547Z,1.30
2022-09-20T07:02:29.200Z,1.20
2022-09-20T07:04:57.472Z,1.00
2022-09-20T07:07:24.539Z,1.30
2022-09-20T07:09:51.321Z,1.30
2022-09-20T07:12:18.177Z,1.92
2022-09-20T07:14:44.824Z,1.55
2022-09-20T07:17:11.505Z,1.55
2022-09-20T07:19:38.119Z,1.50
2022-09-20T07:22:04.831Z,1.40
2022-09-20T07:24:32.242Z,1.60
2022-09-20T07:27:05.005Z,1.80
2022-09-20T07:29:31.803Z,1.73
2022-09-20T07:31:58.784Z,1.50
2022-09-20T07:34:25.662Z,1.60
2022-09-20T07:36:52.363Z,1.50
2022-09-20T07:39:19.102Z,1.35
2022-09-20T07:41:48.533Z,1.15
2022-09-20T07:44:21.962Z,1.20
2022-09-20T07:46:49.785Z,1.10
2022-09-20T07:49:16.474Z,1.25
2022-09-20T07:51:43.429Z,1.00
2022-09-20T07:54:10.127Z,1.83
2022-09-20T07:56:36.791Z,1.00
2022-09-20T07:59:03.698Z,0.88
2022-09-20T08:01:30.531Z,0.90
2022-09-20T08:03:57.415Z,1.13
2022-09-20T08:06:24.480Z,0.82
2022-09-20T08:08:51.716Z,0.50
2022-09-20T08:11:28.535Z,0.90
2022-09-20T08:14:06.261Z,0.95
2022-09-20T08:16:41.961Z,0.60
2022-09-20T08:19:08.970Z,0.70
2022-09-20T08:21:38.029Z,0.75
2022-09-20T08:24:04.755Z,0.90
2022-09-20T08:26:32.260Z,0.90
2022-09-20T08:28:59.991Z,0.60
2022-09-20T08:31:31.443Z,0.40
2022-09-20T08:33:59.153Z,0.30
2022-09-20T08:36:31.041Z,0.63
2022-09-20T08:42:01.996Z,0.30
2022-09-20T08:44:36.432Z,0.30
2022-09-20T08:47:14.984Z,0.28
2022-09-20T08:49:46.080Z,0.20
2022-09-20T08:52:19.455Z,0.20
2022-09-20T08:54:46.844Z,0.15
2022-09-20T08:57:18.250Z,0.30
2022-09-20T08:59:45.279Z,0.25
2022-09-20T09:02:17.901Z,0.30
2022-09-20T09:04:45.457Z,0.38
2022-09-20T09:07:20.282Z,0.10
2022-09-20T09:09:48.460Z,0.10
2022-09-20T09:12:24.382Z,0.28
2022-09-20T09:14:59.353Z,0.10
2022-09-20T09:17:30.367Z,0.10
2022-09-20T09:19:58.195Z,0.20
2022-09-20T09:22:35.176Z,0.20
2022-09-20T09:25:09.128Z,0.10
2022-09-20T09:27:49.037Z,0.10
2022-09-20T09:30:39.952Z,0.00
2022-09-20T09:33:34.327Z,0.10
2022-09-20T09:36:04.065Z,0.10
2022-09-20T09:38:36.962Z,0.00
2022-09-20T09:41:26.151Z,0.10
2022-09-20T09:44:01.885Z,0.00
2022-09-20T09:46:33.745Z,0.10
2022-09-20T09:52:06.937Z,0.20
2022-09-20T09:55:04.834Z,0.10
2022-09-20T09:57:54.070Z,0.10
2022-09-20T10:00:23.676Z,0.32
2022-09-20T10:03:30.988Z,0.10
2022-09-20T10:06:12.703Z,0.10
2022-09-20T10:08:45.451Z,0.15
2022-09-20T10:11:28.574Z,0.10
2022-09-20T10:14:05.405Z,0.10
2022-09-20T10:16:49.877Z,0.10
2022-09-20T10:19:24.815Z,0.10
2022-09-20T10:21:57.325Z,0.10
2022-09-20T10:24:38.341Z,0.10
2022-09-20T10:27:43.206Z,0.10
2022-09-20T10:30:18.978Z,0.20
2022-09-20T10:33:15.934Z,0.10
2022-09-20T10:35:55.724Z,0.10
2022-09-20T10:38:43.630Z,0.08
2022-09-20T10:41:55.697Z,0.20
2022-09-20T10:45:00.199Z,0.22
2022-09-20T10:47:34.805Z,0.17
2022-09-20T10:50:22.470Z,0.13
2022-09-20T10:52:59.273Z,0.17
2022-09-20T10:55:46.462Z,0.17
2022-09-20T10:58:24.565Z,0.10
2022-09-20T11:01:11.929Z,0.20
2022-09-20T11:04:16.247Z,0.20
2022-09-20T11:06:59.165Z,0.17
2022-09-20T11:09:32.409Z,0.20
2022-09-20T11:12:23.333Z,0.05
2022-09-20T11:15:04.601Z,0.20
2022-09-20T11:17:41.713Z,0.00
2022-09-20T11:20:20.747Z,0.13
2022-09-20T11:22:53.123Z,0.03
2022-09-20T11:25:29.820Z,0.10
2022-09-20T11:28:10.171Z,0.30
2022-09-20T11:30:54.316Z,0.40
2022-09-20T11:33:32.903Z,0.10
2022-09-20T11:36:04.286Z,0.20
2022-09-20T11:38:53.416Z,0.10
2022-09-20T11:41:28.578Z,0.10
2022-09-20T11:44:00.434Z,0.30
2022-09-20T11:46:40.354Z,0.20
2022-09-20T11:49:18.998Z,0.10
2022-09-20T11:52:17.285Z,0.13
2022-09-20T11:55:02.025Z,0.22
2022-09-20T11:57:29.509Z,0.15
2022-09-20T12:00:03.363Z,0.10
2022-09-20T12:02:53.640Z,0.20
2022-09-20T12:05:41.572Z,0.17
2022-09-20T12:08:24.598Z,0.20
2022-09-20T12:11:13.761Z,0.20
2022-09-20T12:13:52.243Z,0.10
2022-09-20T12:16:39.639Z,0.20
2022-09-20T12:19:10.114Z,0.13
2022-09-20T12:21:59.753Z,0.20
2022-09-20T12:24:31.171Z,0.20
2022-09-20T12:27:02.342Z,0.20
2022-09-20T12:29:32.562Z,0.30
2022-09-20T12:32:23.464Z,0.30
2022-09-20T12:34:50.125Z,0.15
2022-09-20T12:37:21.781Z,0.10
2022-09-20T12:39:55.843Z,0.30
2022-09-20T12:42:34.071Z,0.80
2022-09-20T12:45:15.787Z,1.50
2022-09-20T12:47:53.569Z,0.60
2022-09-20T12:50:40.694Z,0.30
2022-09-20T12:53:16.680Z,0.30
2022-09-20T12:55:55.099Z,0.10
2022-09-20T12:58:31.005Z,0.22
2022-09-20T13:00:59.326Z,0.10
2022-09-20T13:03:37.708Z,0.10
2022-09-20T13:06:07.275Z,0.20
2022-09-20T13:08:52.092Z,0.15
2022-09-20T13:11:45.726Z,0.38
2022-09-20T13:14:16.659Z,0.20
2022-09-20T13:17:07.050Z,0.50
2022-09-20T13:19:44.091Z,0.22
2022-09-20T13:22:22.531Z,0.30
2022-09-20T13:24:55.059Z,0.13
2022-09-20T13:27:27.391Z,0.10
2022-09-20T13:29:54.123Z,0.10
2022-09-20T13:32:28.834Z,0.22
2022-09-20T13:35:31.622Z,0.20
2022-09-20T13:38:05.082Z,0.10
2022-09-20T13:40:35.231Z,0.20
2022-09-20T13:43:24.006Z,0.20
2022-09-20T13:45:57.752Z,0.20
2022-09-20T13:48:29.242Z,0.20
2022-09-20T13:50:57.326Z,0.20
2022-09-20T13:53:42.331Z,0.20
2022-09-20T13:56:21.525Z,0.30
2022-09-20T13:58:49.633Z,0.10
2022-09-20T14:01:32.345Z,0.10
2022-09-20T14:04:23.790Z,0.20
2022-09-20T14:06:56.319Z,0.13
2022-09-20T14:09:50.415Z,0.10
2022-09-20T14:12:17.549Z,0.20
2022-09-20T14:14:45.038Z,0.10
2022-09-20T14:17:15.710Z,0.10
2022-09-20T14:19:45.718Z,0.10
2022-09-20T14:22:27.509Z,0.20
2022-09-20T14:25:04.154Z,0.20
2022-09-20T14:27:31.491Z,0.20
2022-09-20T14:29:58.766Z,0.10
2022-09-20T14:32:33.825Z,0.10
2022-09-20T14:35:17.655Z,0.20
2022-09-20T14:37:52.097Z,0.15
2022-09-20T14:40:28.025Z,0.10
2022-09-20T14:43:02.434Z,0.20
2022-09-20T14:45:30.787Z,0.10
2022-09-20T14:48:10.376Z,0.20
2022-09-20T14:50:43.751Z,0.10
2022-09-20T14:53:10.893Z,0.10
2022-09-20T14:55:39.905Z,0.15
2022-09-20T14:58:15.246Z,0.20
2022-09-20T15:00:51.060Z,0.10
2022-09-20T15:03:29.182Z,0.20
2022-09-20T15:05:56.526Z,0.13
2022-09-20T15:08:23.543Z,0.30
2022-09-20T15:10:50.785Z,0.20
2022-09-20T15:13:18.258Z,0.15
2022-09-20T15:15:49.690Z,0.20
2022-09-20T15:18:26.588Z,0.22
2022-09-20T15:20:55.370Z,0.20
2022-09-20T15:23:22.464Z,0.28
2022-09-20T15:25:53.666Z,0.30
2022-09-20T15:28:20.941Z,0.20
2022-09-20T15:30:50.483Z,0.20
2022-09-20T15:33:18.398Z,0.10
2022-09-20T15:35:45.938Z,0.30
2022-09-20T15:38:14.021Z,0.20
2022-09-20T15:40:47.170Z,0.10
2022-09-20T15:43:21.541Z,0.25
2022-09-20T15:45:50.906Z,0.20
2022-09-20T15:48:21.452Z,0.20
2022-09-20T15:51:08.646Z,0.15
2022-09-20T15:53:46.212Z,0.15
2022-09-20T15:56:21.603Z,0.20
2022-09-20T15:59:00.937Z,0.28
2022-09-20T16:01:39.745Z,0.20
2022-09-20T16:04:14.933Z,0.15
2022-09-20T16:06:43.454Z,0.22
2022-09-20T16:09:10.598Z,0.22
2022-09-20T16:11:38.741Z,0.35
2022-09-20T16:14:06.452Z,0.30
2022-09-20T16:16:39.967Z,0.40
2022-09-20T16:19:20.810Z,0.28
2022-09-20T16:21:58.492Z,0.20
2022-09-20T16:24:28.836Z,0.20
2022-09-20T16:26:56.117Z,0.20
2022-09-20T16:29:23.525Z,0.30
2022-09-20T16:31:50.724Z,0.20
2022-09-20T16:34:30.635Z,0.30
2022-09-20T16:37:02.113Z,0.25
2022-09-20T16:39:30.689Z,0.30
2022-09-20T16:42:05.418Z,0.20
2022-09-20T16:44:33.337Z,0.30
2022-09-20T16:47:00.540Z,0.20
2022-09-20T16:49:29.555Z,0.20
2022-09-20T16:51:56.211Z,0.30
2022-09-20T16:54:22.922Z,0.20
2022-09-20T16:56:50.760Z,0.30
2022-09-20T16:59:21.454Z,0.30
2022-09-20T17:01:49.078Z,0.10
2022-09-20T17:04:18.358Z,0.30
2022-09-20T17:06:45.790Z,0.38
2022-09-20T17:09:13.742Z,0.10
2022-09-20T17:11:44.631Z,0.35
2022-09-20T17:14:12.307Z,0.30
2022-09-20T17:16:41.136Z,0.40
2022-09-20T17:19:13.067Z,0.25
2022-09-20T17:21:45.155Z,0.30
2022-09-20T17:24:13.882Z,0.20
2022-09-20T17:26:44.462Z,0.40
2022-09-20T17:29:14.042Z,0.50
2022-09-20T17:31:43.889Z,0.30
2022-09-20T17:34:12.713Z,0.70
2022-09-20T17:36:43.606Z,0.57
2022-09-20T17:39:12.729Z,0.60
2022-09-20T17:41:41.107Z,0.57
2022-09-20T17:44:12.097Z,0.88
2022-09-20T17:46:41.124Z,0.70
2022-09-20T17:49:10.577Z,0.70
2022-09-20T17:51:40.250Z,0.47
2022-09-20T17:54:08.086Z,0.52
2022-09-20T17:56:35.722Z,0.60
2022-09-20T17:59:04.610Z,0.40
2022-09-20T18:01:33.700Z,0.55
2022-09-20T18:04:02.137Z,0.70
2022-09-20T18:06:33.073Z,0.68
2022-09-20T18:09:02.706Z,0.63
2022-09-20T18:11:37.905Z,0.50
2022-09-20T18:14:07.952Z,0.70
2022-09-20T18:16:35.225Z,0.60
2022-09-20T18:19:02.015Z,0.43
2022-09-20T18:21:30.724Z,0.60
2022-09-20T18:23:57.738Z,0.60
2022-09-20T18:26:27.499Z,0.45
2022-09-20T18:29:04.694Z,0.50
2022-09-20T18:31:43.199Z,0.50
2022-09-20T18:34:17.698Z,0.50
2022-09-20T18:36:48.458Z,0.73
2022-09-20T18:39:15.160Z,0.80
2022-09-20T18:41:43.093Z,0.52
2022-09-20T18:44:14.141Z,0.70
2022-09-20T18:46:41.622Z,0.80
2022-09-20T18:49:09.690Z,0.82
2022-09-20T18:51:39.829Z,1.00
2022-09-20T18:54:10.577Z,0.70
2022-09-20T18:56:42.378Z,0.60
2022-09-20T18:59:25.219Z,0.88
2022-09-20T19:01:57.916Z,0.82
2022-09-20T19:04:42.846Z,0.82
2022-09-20T19:07:27.517Z,0.65
2022-09-20T19:10:00.080Z,0.60
2022-09-20T19:12:32.896Z,0.80
2022-09-20T19:15:09.633Z,1.00
2022-09-20T19:17:57.988Z,0.55
2022-09-20T19:20:33.981Z,0.68
2022-09-20T19:23:34.733Z,0.70
2022-09-20T19:26:10.532Z,0.82
2022-09-20T19:28:37.428Z,0.80
2022-09-20T19:31:04.335Z,0.70
2022-09-20T19:33:31.287Z,0.80
2022-09-20T19:35:59.208Z,1.00
2022-09-20T19:38:53.827Z,0.90
2022-09-20T19:42:07.050Z,1.20
2022-09-20T19:45:10.309Z,1.30
2022-09-20T19:48:08.077Z,0.90
2022-09-20T19:50:53.051Z,1.02
2022-09-20T19:53:27.037Z,0.85
2022-09-20T19:55:54.918Z,0.80
2022-09-20T19:58:22.762Z,0.68
2022-09-20T20:00:49.802Z,0.50
2022-09-20T20:03:16.817Z,0.50
2022-09-20T20:06:02.376Z,0.80
2022-09-20T20:08:50.553Z,0.60
2022-09-20T20:11:46.040Z,0.50
2022-09-20T20:14:29.865Z,0.75
2022-09-20T20:17:20.737Z,0.75
2022-09-20T20:20:12.600Z,0.70
2022-09-20T20:22:55.687Z,0.70
2022-09-20T20:28:05.061Z,0.55
2022-09-20T20:30:32.029Z,0.45
2022-09-20T20:32:58.671Z,0.60
2022-09-20T20:35:28.538Z,0.65
2022-09-20T20:37:55.215Z,0.47
2022-09-20T20:40:21.910Z,0.60
2022-09-20T20:42:49.399Z,0.30
2022-09-20T20:45:16.018Z,0.68
2022-09-20T20:47:44.258Z,0.52
2022-09-20T20:50:11.885Z,0.70
2022-09-20T20:52:39.299Z,0.75
2022-09-20T20:55:06.266Z,0.60
2022-09-20T20:57:34.150Z,0.63
2022-09-20T21:00:03.255Z,0.75
2022-09-20T21:02:30.279Z,0.82
2022-09-20T21:04:56.894Z,0.80
2022-09-20T21:07:23.563Z,1.02
2022-09-20T21:09:50.252Z,1.58
2022-09-20T21:12:17.570Z,1.02
2022-09-20T21:14:44.679Z,0.80
2022-09-20T21:17:11.364Z,0.90
2022-09-20T21:19:37.942Z,0.88
2022-09-20T21:22:04.553Z,0.73
2022-09-20T21:24:31.213Z,0.50
2022-09-20T21:26:57.866Z,0.50
2022-09-20T21:29:24.453Z,0.50
2022-09-20T21:31:51.093Z,0.60
2022-09-20T21:34:17.767Z,0.52
2022-09-20T21:36:44.899Z,0.50
2022-09-20T21:39:12.284Z,0.60
2022-09-20T21:41:39.662Z,0.52
2022-09-20T21:44:07.841Z,0.57
2022-09-20T21:46:37.055Z,0.40
2022-09-20T21:49:06.698Z,0.60
2022-09-20T21:51:33.617Z,0.52
2022-09-20T21:54:01.937Z,0.55
2022-09-20T21:56:34.111Z,0.63
2022-09-20T21:59:03.896Z,0.80
2022-09-20T22:01:36.674Z,0.95
2022-09-20T22:04:11.162Z,1.13
2022-09-20T22:06:40.648Z,0.88
2022-09-20T22:09:10.337Z,2.15
2022-09-20T22:11:39.908Z,2.40
2022-09-20T22:14:08.225Z,2.53
2022-09-20T22:16:37.922Z,1.80
2022-09-20T22:19:06.226Z,2.08
2022-09-20T22:21:37.210Z,2.03
2022-09-20T22:24:06.928Z,1.40
2022-09-20T22:26:36.718Z,1.02
2022-09-20T22:29:04.249Z,1.52
2022-09-20T22:31:33.373Z,1.10
2022-09-20T22:34:03.154Z,1.17
2022-09-20T22:36:31.223Z,1.27
2022-09-20T22:38:57.932Z,1.23
2022-09-20T22:41:25.248Z,0.90
2022-09-20T22:43:52.054Z,0.60
2022-09-20T22:46:22.015Z,0.50
2022-09-20T22:48:49.002Z,0.82
2022-09-20T22:51:17.525Z,0.45
2022-09-20T22:53:47.323Z,0.50
2022-09-20T22:56:28.867Z,0.40
2022-09-20T22:59:00.020Z,0.40
2022-09-20T23:01:32.473Z,0.70
2022-09-20T23:04:01.863Z,0.77
2022-09-20T23:06:34.312Z,0.90
2022-09-20T23:09:02.471Z,0.80
2022-09-20T23:11:30.097Z,0.88
2022-09-20T23:14:01.754Z,0.93
2022-09-20T23:16:30.448Z,0.80
2022-09-20T23:18:59.343Z,0.70
2022-09-20T23:21:26.419Z,0.60
2022-09-20T23:23:58.398Z,0.70
2022-09-20T23:26:26.209Z,1.10
2022-09-20T23:28:58.428Z,0.68
2022-09-20T23:31:26.511Z,0.70
2022-09-20T23:33:55.542Z,0.60
2022-09-20T23:36:22.947Z,0.52
2022-09-20T23:38:49.995Z,0.63
2022-09-20T23:41:19.887Z,0.47
2022-09-20T23:43:46.751Z,0.50
2022-09-20T23:46:14.637Z,0.40
2022-09-20T23:48:42.097Z,0.70
2022-09-20T23:51:11.486Z,0.65
2022-09-20T23:53:38.231Z,0.75
2022-09-20T23:56:06.219Z,0.70
2022-09-20T23:58:36.834Z,0.75
